createdAt,value
2018-12-30T00:02:44.698Z,97798.06
2018-12-30T00:05:40.363Z,97797.28
2018-12-30T00:08:36.686Z,97800.28
2018-12-30T00:11:33.532Z,97804.39
2018-12-30T00:14:30.450Z,97805.73
2018-12-30T00:17:26.222Z,97811.60
2018-12-30T00:20:23.402Z,97806.70
2018-12-30T00:23:18.995Z,97798.05
2018-12-30T00:26:15.949Z,97782.86
2018-12-30T00:29:13.792Z,97777.58
2018-12-30T00:32:09.721Z,97794.77
2018-12-30T00:35:05.611Z,97779.00
2018-12-30T00:38:01.704Z,97787.45
2018-12-30T00:40:58.294Z,97780.05
2018-12-30T00:43:54.169Z,97780.92
2018-12-30T00:46:51.918Z,97778.60
2018-12-30T00:49:47.720Z,97772.06
2018-12-30T00:52:45.401Z,97775.06
2018-12-30T00:55:41.609Z,97775.06
2018-12-30T00:58:37.408Z,97788.80
2018-12-30T01:01:35.080Z,97795.67
2018-12-30T01:04:31.405Z,97792.14
2018-12-30T01:07:28.282Z,97796.84
2018-12-30T01:10:25.744Z,97792.02
2018-12-30T01:13:22.184Z,97785.40
2018-12-30T01:16:17.770Z,97778.95
2018-12-30T01:19:15.512Z,97793.23
2018-12-30T01:22:11.299Z,97785.08
2018-12-30T01:25:07.285Z,97767.59
2018-12-30T01:28:03.088Z,97769.88
2018-12-30T01:30:58.884Z,97771.21
2018-12-30T01:33:56.809Z,97763.88
2018-12-30T01:36:53.620Z,97760.63
2018-12-30T01:39:51.198Z,97759.84
2018-12-30T01:42:46.711Z,97769.08
2018-12-30T01:45:43.047Z,97772.83
2018-12-30T01:48:40.948Z,97770.88
2018-12-30T01:51:37.824Z,97779.42
2018-12-30T01:54:34.514Z,97747.13
2018-12-30T01:57:30.114Z,97754.80
2018-12-30T02:00:26.675Z,97754.80
2018-12-30T02:03:23.498Z,97783.12
2018-12-30T02:06:20.362Z,97783.12
2018-12-30T02:09:15.885Z,97776.08
2018-12-30T02:12:12.334Z,97781.08
2018-12-30T02:15:08.008Z,97777.98
2018-12-30T02:18:04.606Z,97777.41
2018-12-30T02:21:03.074Z,97769.91
2018-12-30T02:23:58.884Z,97781.73
2018-12-30T02:26:55.680Z,97772.86
2018-12-30T02:29:51.234Z,97770.86
2018-12-30T02:32:48.046Z,97776.61
2018-12-30T02:35:43.821Z,97782.56
2018-12-30T02:38:40.701Z,97784.77
2018-12-30T02:41:38.259Z,97785.73
2018-12-30T02:44:33.734Z,97771.68
2018-12-30T02:47:31.324Z,97786.55
2018-12-30T02:50:26.864Z,97777.50
2018-12-30T02:53:24.519Z,97785.96
2018-12-30T02:56:19.946Z,97790.25
2018-12-30T02:59:16.395Z,97779.41
2018-12-30T03:02:11.612Z,97774.21
2018-12-30T03:05:07.799Z,97777.20
2018-12-30T03:08:03.756Z,97778.16
2018-12-30T03:11:00.289Z,97772.29
2018-12-30T03:13:57.189Z,97777.08
2018-12-30T03:16:52.720Z,97772.53
2018-12-30T03:19:48.690Z,97783.03
2018-12-30T03:22:44.145Z,97773.48
2018-12-30T03:25:41.013Z,97779.94
2018-12-30T03:28:36.945Z,97773.39
2018-12-30T03:31:32.939Z,97766.64
2018-12-30T03:34:29.609Z,97767.43
2018-12-30T03:37:25.137Z,97769.44
2018-12-30T03:40:24.130Z,97770.69
2018-12-30T03:43:20.983Z,97763.19
2018-12-30T03:46:17.788Z,97752.23
2018-12-30T03:49:14.150Z,97760.69
2018-12-30T03:52:12.030Z,97769.63
2018-12-30T03:55:07.649Z,97763.05
2018-12-30T03:58:03.061Z,97773.25
2018-12-30T04:00:58.743Z,97776.80
2018-12-30T04:03:55.323Z,97776.80
2018-12-30T04:06:50.872Z,97776.80
2018-12-30T04:09:46.693Z,97781.05
2018-12-30T04:12:44.289Z,97789.02
2018-12-30T04:15:39.936Z,97795.46
2018-12-30T04:18:36.278Z,97786.22
2018-12-30T04:21:32.090Z,97784.59
2018-12-30T04:24:28.911Z,97787.84
2018-12-30T04:27:24.651Z,97790.45
2018-12-30T04:30:22.498Z,97788.88
2018-12-30T04:33:18.234Z,97789.07
2018-12-30T04:36:14.979Z,97797.83
2018-12-30T04:39:10.466Z,97796.58
2018-12-30T04:42:07.356Z,97791.88
2018-12-30T04:45:03.380Z,97793.13
2018-12-30T04:47:59.994Z,97793.28
2018-12-30T04:50:57.765Z,97802.23
2018-12-30T04:53:53.336Z,97798.48
2018-12-30T04:56:49.349Z,97805.66
2018-12-30T04:59:44.714Z,97800.36
2018-12-30T05:02:42.281Z,97806.23
2018-12-30T05:05:37.928Z,97797.09
2018-12-30T05:08:33.638Z,97805.55
2018-12-30T05:11:29.126Z,97806.31
2018-12-30T05:14:26.786Z,97797.09
2018-12-30T05:17:22.512Z,97807.86
2018-12-30T05:20:19.180Z,97806.31
2018-12-30T05:23:16.976Z,97804.77
2018-12-30T05:26:12.554Z,97799.77
2018-12-30T05:29:08.703Z,97806.17
2018-12-30T05:32:04.797Z,97815.89
2018-12-30T05:35:01.579Z,97809.33
2018-12-30T05:37:57.088Z,97808.66
2018-12-30T05:40:53.900Z,97814.20
2018-12-30T05:43:53.028Z,97820.45
2018-12-30T05:46:49.657Z,97824.78
2018-12-30T05:49:47.614Z,97821.48
2018-12-30T05:52:44.142Z,97826.41
2018-12-30T05:55:40.911Z,97831.12
2018-12-30T05:58:35.942Z,97827.83
2018-12-30T06:01:37.518Z,97830.02
2018-12-30T06:04:33.573Z,97829.43
2018-12-30T06:07:30.317Z,97840.39
2018-12-30T06:10:25.933Z,97842.89
2018-12-30T06:13:22.707Z,97841.34
2018-12-30T06:16:19.061Z,97843.84
2018-12-30T06:19:14.459Z,97851.36
2018-12-30T06:22:10.971Z,97859.33
2018-12-30T06:25:07.433Z,97854.81
2018-12-30T06:28:03.987Z,97853.48
2018-12-30T06:31:00.789Z,97859.82
2018-12-30T06:33:57.841Z,97861.53
2018-12-30T06:36:54.635Z,97866.70
2018-12-30T06:39:50.094Z,97867.27
2018-12-30T06:42:46.735Z,97869.20
2018-12-30T06:45:43.368Z,97868.44
2018-12-30T06:48:41.711Z,97872.36
2018-12-30T06:51:36.505Z,97878.81
2018-12-30T06:54:33.225Z,97882.08
2018-12-30T06:57:28.813Z,97893.83
2018-12-30T07:00:25.389Z,97888.98
2018-12-30T07:03:24.007Z,97901.02
2018-12-30T07:06:19.626Z,97903.22
2018-12-30T07:09:16.025Z,97909.34
2018-12-30T07:12:11.541Z,97910.41
2018-12-30T07:15:09.835Z,97922.22
2018-12-30T07:18:04.855Z,97917.70
2018-12-30T07:21:01.433Z,97923.01
2018-12-30T07:23:59.031Z,97920.02
2018-12-30T07:26:58.462Z,97934.73
2018-12-30T07:29:55.067Z,97930.69
2018-12-30T07:32:51.730Z,97930.22
2018-12-30T07:35:48.555Z,97944.92
2018-12-30T07:38:43.980Z,97941.66
2018-12-30T07:41:40.526Z,97946.06
2018-12-30T07:44:37.304Z,97945.35
2018-12-30T07:47:33.636Z,97949.98
2018-12-30T07:50:33.008Z,97963.76
2018-12-30T07:53:29.784Z,97963.92
2018-12-30T07:56:26.628Z,97969.80
2018-12-30T07:59:22.256Z,97981.45
2018-12-30T08:02:18.866Z,97976.15
2018-12-30T08:05:15.472Z,97977.48
2018-12-30T08:08:12.250Z,97980.26
2018-12-30T08:11:07.557Z,97994.66
2018-12-30T08:14:03.818Z,97988.29
2018-12-30T08:17:01.568Z,97981.53
2018-12-30T08:20:03.830Z,97987.50
2018-12-30T08:22:59.635Z,97995.67
2018-12-30T08:25:57.627Z,97996.41
2018-12-30T08:28:54.271Z,97991.92
2018-12-30T08:31:50.577Z,98002.15
2018-12-30T08:34:47.987Z,98009.36
2018-12-30T08:37:43.626Z,98016.25
2018-12-30T08:40:40.398Z,98002.95
2018-12-30T08:43:37.029Z,98007.17
2018-12-30T08:46:32.582Z,98019.11
2018-12-30T08:49:30.159Z,98022.56
2018-12-30T08:52:28.303Z,98021.77
2018-12-30T08:55:25.866Z,98031.64
2018-12-30T08:58:21.391Z,98030.09
2018-12-30T09:01:18.260Z,98033.55
2018-12-30T09:04:13.983Z,98042.02
2018-12-30T09:07:14.811Z,98049.63
2018-12-30T09:10:12.991Z,98052.05
2018-12-30T09:13:08.861Z,98052.05
2018-12-30T09:16:06.474Z,98046.08
2018-12-30T09:19:02.255Z,98034.50
2018-12-30T09:21:58.937Z,98040.78
2018-12-30T09:24:56.670Z,98052.88
2018-12-30T09:27:53.523Z,98048.02
2018-12-30T09:30:49.010Z,98067.48
2018-12-30T09:33:45.593Z,98070.64
2018-12-30T09:36:40.446Z,98072.05
2018-12-30T09:39:36.433Z,98074.75
2018-12-30T09:42:32.015Z,98084.14
2018-12-30T09:45:29.728Z,98088.55
2018-12-30T09:48:33.613Z,98087.45
2018-12-30T09:51:24.551Z,98083.39
2018-12-30T09:54:22.646Z,98092.36
2018-12-30T09:57:19.537Z,98090.39
2018-12-30T10:00:16.422Z,98097.84
2018-12-30T10:03:12.885Z,98088.15
2018-12-30T10:06:10.756Z,98090.50
2018-12-30T10:09:06.840Z,98101.27
2018-12-30T10:12:03.215Z,98101.91
2018-12-30T10:15:08.914Z,98104.05
2018-12-30T10:17:55.785Z,98112.52
2018-12-30T10:20:52.572Z,98112.52
2018-12-30T10:23:52.985Z,98128.50
2018-12-30T10:26:47.833Z,98127.66
2018-12-30T10:29:43.814Z,98121.92
2018-12-30T10:32:40.894Z,98135.20
2018-12-30T10:35:37.177Z,98141.05
2018-12-30T10:38:32.822Z,98143.56
2018-12-30T10:41:29.347Z,98138.73
2018-12-30T10:44:24.840Z,98141.86
2018-12-30T10:47:22.464Z,98139.98
2018-12-30T10:50:18.844Z,98148.78
2018-12-30T10:53:16.423Z,98142.50
2018-12-30T10:56:14.883Z,98146.76
2018-12-30T10:59:11.341Z,98156.95
2018-12-30T11:02:07.442Z,98148.81
2018-12-30T11:05:02.991Z,98153.83
2018-12-30T11:08:01.130Z,98151.47
2018-12-30T11:10:56.720Z,98146.14
2018-12-30T11:13:54.578Z,98143.63
2018-12-30T11:16:51.280Z,98147.27
2018-12-30T11:19:48.154Z,98145.86
2018-12-30T11:22:43.991Z,98144.59
2018-12-30T11:25:42.340Z,98144.23
2018-12-30T11:28:38.697Z,98150.89
2018-12-30T11:31:34.514Z,98145.38
2018-12-30T11:34:31.782Z,98138.08
2018-12-30T11:37:28.500Z,98139.75
2018-12-30T11:40:25.723Z,98145.09
2018-12-30T11:43:21.430Z,98150.42
2018-12-30T11:46:18.190Z,98147.76
2018-12-30T11:49:15.416Z,98142.55
2018-12-30T11:52:11.885Z,98140.84
2018-12-30T11:55:07.983Z,98145.48
2018-12-30T11:58:06.741Z,98152.45
2018-12-30T12:01:03.638Z,98145.86
2018-12-30T12:03:59.416Z,98139.27
2018-12-30T12:06:56.971Z,98143.64
2018-12-30T12:09:52.774Z,98142.57
2018-12-30T12:12:50.283Z,98148.05
2018-12-30T12:15:47.018Z,98161.42
2018-12-30T12:18:43.040Z,98166.90
2018-12-30T12:21:39.358Z,98168.16
2018-12-30T12:24:34.998Z,98176.56
2018-12-30T12:27:32.633Z,98165.79
2018-12-30T12:30:28.657Z,98172.41
2018-12-30T12:33:25.313Z,98173.33
2018-12-30T12:36:21.007Z,98177.73
2018-12-30T12:39:18.355Z,98173.66
2018-12-30T12:42:14.937Z,98173.66
2018-12-30T12:45:10.633Z,98180.74
2018-12-30T12:48:08.534Z,98182.77
2018-12-30T12:51:04.014Z,98180.25
2018-12-30T12:54:00.809Z,98184.52
2018-12-30T12:56:58.412Z,98176.03
2018-12-30T12:59:55.384Z,98173.98
2018-12-30T13:02:52.332Z,98176.49
2018-12-30T13:05:48.112Z,98184.48
2018-12-30T13:08:44.844Z,98192.98
2018-12-30T13:11:41.751Z,98184.98
2018-12-30T13:14:38.712Z,98189.52
2018-12-30T13:17:34.317Z,98195.95
2018-12-30T13:20:32.286Z,98196.89
2018-12-30T13:23:28.067Z,98199.59
2018-12-30T13:26:25.645Z,98205.08
2018-12-30T13:29:23.135Z,98208.08
2018-12-30T13:32:18.889Z,98214.67
2018-12-30T13:35:15.687Z,98213.72
2018-12-30T13:38:11.200Z,98220.77
2018-12-30T13:41:08.434Z,98216.05
2018-12-30T13:44:05.383Z,98211.02
2018-12-30T13:47:02.029Z,98210.48
2018-12-30T13:49:59.301Z,98215.44
2018-12-30T13:52:55.021Z,98209.92
2018-12-30T13:55:52.306Z,98219.21
2018-12-30T13:58:49.111Z,98221.53
2018-12-30T14:01:48.655Z,98229.41
2018-12-30T14:04:45.578Z,98238.20
2018-12-30T14:07:41.536Z,98246.51
2018-12-30T14:10:39.277Z,98240.53
2018-12-30T14:13:35.470Z,98261.43
2018-12-30T14:16:32.227Z,98253.40
2018-12-30T14:19:29.266Z,98254.50
2018-12-30T14:22:25.965Z,98261.09
2018-12-30T14:25:22.638Z,98259.67
2018-12-30T14:28:17.581Z,98266.56
2018-12-30T14:31:15.258Z,98267.36
2018-12-30T14:34:10.876Z,98260.20
2018-12-30T14:37:07.684Z,98277.41
2018-12-30T14:40:05.203Z,98259.62
2018-12-30T14:43:01.989Z,98266.56
2018-12-30T14:46:01.812Z,98254.61
2018-12-30T14:48:58.387Z,98260.42
2018-12-30T14:51:55.669Z,98267.16
2018-12-30T14:54:51.183Z,98262.06
2018-12-30T14:57:48.160Z,98277.35
2018-12-30T15:00:47.755Z,98271.08
2018-12-30T15:03:44.098Z,98274.61
2018-12-30T15:06:40.177Z,98269.01
2018-12-30T15:09:36.776Z,98263.83
2018-12-30T15:12:33.693Z,98267.10
2018-12-30T15:15:29.494Z,98274.47
2018-12-30T15:18:26.348Z,98270.13
2018-12-30T15:21:24.081Z,98271.80
2018-12-30T15:24:20.844Z,98274.31
2018-12-30T15:27:16.625Z,98278.55
2018-12-30T15:30:14.453Z,98273.36
2018-12-30T15:33:09.535Z,98276.63
2018-12-30T15:36:06.276Z,98281.48
2018-12-30T15:39:03.270Z,98279.47
2018-12-30T15:42:02.786Z,98286.05
2018-12-30T15:45:00.760Z,98285.39
2018-12-30T15:47:56.785Z,98280.30
2018-12-30T15:50:55.497Z,98280.97
2018-12-30T15:53:52.227Z,98285.34
2018-12-30T15:56:49.650Z,98278.14
2018-12-30T15:59:46.645Z,98278.22
2018-12-30T16:02:44.136Z,98279.77
2018-12-30T16:05:41.867Z,98277.94
2018-12-30T16:08:37.900Z,98275.43
2018-12-30T16:11:35.807Z,98277.48
2018-12-30T16:14:31.762Z,98282.80
2018-12-30T16:17:26.086Z,98284.81
2018-12-30T16:20:23.105Z,98286.39
2018-12-30T16:23:19.998Z,98300.20
2018-12-30T16:26:16.301Z,98295.94
2018-12-30T16:29:11.247Z,98297.69
2018-12-30T16:32:08.994Z,98309.28
2018-12-30T16:35:04.750Z,98310.45
2018-12-30T16:38:01.479Z,98312.38
2018-12-30T16:40:57.172Z,98317.70
2018-12-30T16:43:53.966Z,98320.70
2018-12-30T16:46:49.182Z,98313.94
2018-12-30T16:49:45.282Z,98301.39
2018-12-30T16:52:42.234Z,98308.25
2018-12-30T16:55:38.057Z,98311.25
2018-12-30T16:58:35.156Z,98329.78
2018-12-30T17:01:33.288Z,98335.27
2018-12-30T17:04:30.116Z,98327.44
2018-12-30T17:07:27.621Z,98322.42
2018-12-30T17:10:24.298Z,98328.61
2018-12-30T17:13:20.244Z,98326.09
2018-12-30T17:16:17.774Z,98322.88
2018-12-30T17:19:13.899Z,98312.84
2018-12-30T17:22:11.980Z,98307.83
2018-12-30T17:25:07.767Z,98309.08
2018-12-30T17:28:04.169Z,98311.59
2018-12-30T17:31:00.849Z,98311.59
2018-12-30T17:33:57.559Z,98314.09
2018-12-30T17:36:53.955Z,98312.55
2018-12-30T17:39:49.082Z,98314.30
2018-12-30T17:42:46.156Z,98320.08
2018-12-30T17:45:41.275Z,98310.53
2018-12-30T17:48:38.160Z,98313.05
2018-12-30T17:51:34.948Z,98301.26
2018-12-30T17:54:32.056Z,98320.08
2018-12-30T17:57:27.999Z,98319.23
2018-12-30T18:00:24.908Z,98329.16
2018-12-30T18:03:21.841Z,98319.91
2018-12-30T18:06:18.762Z,98333.33
2018-12-30T18:09:15.456Z,98331.20
2018-12-30T18:12:11.802Z,98339.20
2018-12-30T18:15:07.761Z,98339.20
2018-12-30T18:18:04.607Z,98333.42
2018-12-30T18:21:02.666Z,98347.68
2018-12-30T18:23:59.757Z,98338.89
2018-12-30T18:26:56.588Z,98341.70
2018-12-30T18:29:56.204Z,98340.95
2018-12-30T18:32:53.292Z,98339.20
2018-12-30T18:35:49.091Z,98326.19
2018-12-30T18:38:46.704Z,98325.89
2018-12-30T18:41:42.924Z,98321.63
2018-12-30T18:44:38.938Z,98326.34
2018-12-30T18:47:36.878Z,98333.42
2018-12-30T18:50:32.655Z,98333.42
2018-12-30T18:53:30.410Z,98346.52
2018-12-30T18:56:27.006Z,98356.09
2018-12-30T18:59:22.922Z,98364.48
2018-12-30T19:02:20.058Z,98361.98
2018-12-30T19:05:14.940Z,98360.73
2018-12-30T19:08:10.739Z,98349.43
2018-12-30T19:11:08.553Z,98342.66
2018-12-30T19:14:05.368Z,98342.66
2018-12-30T19:17:11.776Z,98347.68
2018-12-30T19:20:07.723Z,98341.41
2018-12-30T19:23:04.579Z,98346.92
2018-12-30T19:26:01.105Z,98357.92
2018-12-30T19:28:59.124Z,98351.15
2018-12-30T19:31:55.293Z,98337.73
2018-12-30T19:34:52.957Z,98340.35
2018-12-30T19:37:48.642Z,98339.94
2018-12-30T19:40:46.219Z,98338.01
2018-12-30T19:43:43.782Z,98343.49
2018-12-30T19:46:40.424Z,98359.81
2018-12-30T19:49:37.311Z,98348.92
2018-12-30T19:52:32.971Z,98352.11
2018-12-30T19:55:30.529Z,98355.41
2018-12-30T19:58:29.049Z,98353.95
2018-12-30T20:01:26.067Z,98358.59
2018-12-30T20:04:23.306Z,98367.00
2018-12-30T20:07:19.196Z,98353.95
2018-12-30T20:10:16.400Z,98337.64
2018-12-30T20:13:29.282Z,98340.16
2018-12-30T20:16:26.874Z,98336.69
2018-12-30T20:19:22.785Z,98338.27
2018-12-30T20:22:19.101Z,98339.02
2018-12-30T20:25:19.104Z,98323.21
2018-12-30T20:28:15.621Z,98323.21
2018-12-30T20:31:12.200Z,98313.47
2018-12-30T20:34:08.233Z,98307.20
2018-12-30T20:37:05.070Z,98310.47
2018-12-30T20:40:00.982Z,98307.20
2018-12-30T20:43:03.951Z,98308.83
2018-12-30T20:45:59.617Z,98320.50
2018-12-30T20:48:57.340Z,98318.87
2018-12-30T20:51:58.096Z,98316.27
2018-12-30T20:54:59.235Z,98319.55
2018-12-30T20:57:56.592Z,98324.09
2018-12-30T21:00:52.555Z,98328.33
2018-12-30T21:03:48.993Z,98319.55
2018-12-30T21:06:44.141Z,98322.84
2018-12-30T21:09:40.904Z,98319.38
2018-12-30T21:12:38.029Z,98319.38
2018-12-30T21:15:36.624Z,98319.38
2018-12-30T21:18:33.419Z,98313.39
2018-12-30T21:21:32.822Z,98315.91
2018-12-30T21:24:30.645Z,98310.89
2018-12-30T21:27:26.205Z,98312.14
2018-12-30T21:30:24.119Z,98309.63
2018-12-30T21:33:19.694Z,98309.17
2018-12-30T21:36:15.403Z,98305.41
2018-12-30T21:39:11.891Z,98307.50
2018-12-30T21:42:11.622Z,98300.85
2018-12-30T21:45:08.172Z,98302.90
2018-12-30T21:48:04.668Z,98302.41
2018-12-30T21:51:01.248Z,98310.89
2018-12-30T21:53:56.829Z,98313.39
2018-12-30T21:56:55.119Z,98310.89
2018-12-30T21:59:50.885Z,98315.03
2018-12-30T22:02:46.595Z,98314.19
2018-12-30T22:05:44.218Z,98310.89
2018-12-30T22:08:40.785Z,98305.79
2018-12-30T22:11:40.171Z,98306.17
2018-12-30T22:14:38.889Z,98317.54
2018-12-30T22:17:34.675Z,98321.42
2018-12-30T22:20:32.805Z,98315.45
2018-12-30T22:23:28.554Z,98314.36
2018-12-30T22:26:28.031Z,98320.16
2018-12-30T22:29:26.613Z,98323.44
2018-12-30T22:32:24.306Z,98327.69
2018-12-30T22:35:20.755Z,98330.20
2018-12-30T22:38:18.671Z,98330.20
2018-12-30T22:41:15.961Z,98330.20
2018-12-30T22:44:13.248Z,98335.39
2018-12-30T22:47:11.489Z,98337.89
2018-12-30T22:50:09.415Z,98329.11
2018-12-30T22:53:06.386Z,98327.86
2018-12-30T22:56:02.428Z,98332.09
2018-12-30T22:58:59.425Z,98331.70
2018-12-30T23:01:56.334Z,98331.33
2018-12-30T23:04:55.104Z,98328.82
2018-12-30T23:07:51.636Z,98320.42
2018-12-30T23:10:48.493Z,98312.02
2018-12-30T23:13:44.495Z,98312.89
2018-12-30T23:16:42.366Z,98297.08
2018-12-30T23:19:39.537Z,98288.18
2018-12-30T23:22:39.576Z,98291.94
2018-12-30T23:25:38.205Z,98303.73
2018-12-30T23:28:37.612Z,98307.00
2018-12-30T23:31:35.977Z,98311.25
2018-12-30T23:34:31.706Z,98315.31
2018-12-30T23:37:29.007Z,98315.31
2018-12-30T23:40:25.585Z,98309.80
2018-12-30T23:43:23.123Z,98308.55
2018-12-30T23:46:18.997Z,98312.31
2018-12-30T23:49:16.879Z,98310.30
2018-12-30T23:52:14.267Z,98306.04
2018-12-30T23:55:11.358Z,98306.83
2018-12-30T23:58:10.251Z,98308.55
